sensor_id;sensor_type;location;lat;lon;timestamp;P1;durP1;ratioP1;P2;durP2;ratioP2
13485;SDS011;6815;59.336;17.998;2023-07-13T00:02:00;3.10;;;2.80;;
13485;SDS011;6815;59.336;17.998;2023-07-13T00:04:26;3.00;;;2.58;;
13485;SDS011;6815;59.336;17.998;2023-07-13T00:06:52;4.47;;;2.78;;
13485;SDS011;6815;59.336;17.998;2023-07-13T00:09:18;3.03;;;2.67;;
13485;SDS011;6815;59.336;17.998;2023-07-13T00:11:46;2.70;;;2.50;;
13485;SDS011;6815;59.336;17.998;2023-07-13T00:14:15;3.83;;;2.70;;
13485;SDS011;6815;59.336;17.998;2023-07-13T00:16:41;3.03;;;2.63;;
13485;SDS011;6815;59.336;17.998;2023-07-13T00:19:09;3.10;;;2.80;;
13485;SDS011;6815;59.336;17.998;2023-07-13T00:21:35;3.05;;;2.72;;
13485;SDS011;6815;59.336;17.998;2023-07-13T00:24:00;3.50;;;2.75;;
13485;SDS011;6815;59.336;17.998;2023-07-13T00:26:26;3.38;;;2.75;;
13485;SDS011;6815;59.336;17.998;2023-07-13T00:28:52;3.35;;;2.92;;
13485;SDS011;6815;59.336;17.998;2023-07-13T00:31:17;2.90;;;2.60;;
13485;SDS011;6815;59.336;17.998;2023-07-13T00:33:43;5.40;;;3.10;;
13485;SDS011;6815;59.336;17.998;2023-07-13T00:36:09;4.75;;;3.20;;
13485;SDS011;6815;59.336;17.998;2023-07-13T00:38:35;2.90;;;2.67;;
13485;SDS011;6815;59.336;17.998;2023-07-13T00:41:01;3.65;;;2.65;;
13485;SDS011;6815;59.336;17.998;2023-07-13T00:43:29;3.60;;;2.83;;
13485;SDS011;6815;59.336;17.998;2023-07-13T00:48:27;2.90;;;2.55;;
13485;SDS011;6815;59.336;17.998;2023-07-13T00:50:56;3.10;;;2.65;;
13485;SDS011;6815;59.336;17.998;2023-07-13T00:53:26;3.17;;;2.50;;
13485;SDS011;6815;59.336;17.998;2023-07-13T00:55:54;3.53;;;2.33;;
13485;SDS011;6815;59.336;17.998;2023-07-13T00:58:21;3.13;;;2.42;;
13485;SDS011;6815;59.336;17.998;2023-07-13T01:00:48;2.67;;;2.47;;
13485;SDS011;6815;59.336;17.998;2023-07-13T01:03:15;3.55;;;2.75;;
13485;SDS011;6815;59.336;17.998;2023-07-13T01:05:42;2.83;;;2.53;;
13485;SDS011;6815;59.336;17.998;2023-07-13T01:08:08;3.95;;;2.70;;
13485;SDS011;6815;59.336;17.998;2023-07-13T01:10:33;2.90;;;2.53;;
13485;SDS011;6815;59.336;17.998;2023-07-13T01:13:04;3.65;;;2.90;;
13485;SDS011;6815;59.336;17.998;2023-07-13T01:15:34;3.22;;;2.75;;
13485;SDS011;6815;59.336;17.998;2023-07-13T01:18:02;2.50;;;2.30;;
13485;SDS011;6815;59.336;17.998;2023-07-13T01:20:30;3.38;;;2.72;;
13485;SDS011;6815;59.336;17.998;2023-07-13T01:23:00;4.78;;;2.50;;
13485;SDS011;6815;59.336;17.998;2023-07-13T01:25:28;3.50;;;2.88;;
13485;SDS011;6815;59.336;17.998;2023-07-13T01:27:54;2.95;;;2.53;;
13485;SDS011;6815;59.336;17.998;2023-07-13T01:30:19;2.45;;;2.25;;
13485;SDS011;6815;59.336;17.998;2023-07-13T01:32:45;2.90;;;2.60;;
13485;SDS011;6815;59.336;17.998;2023-07-13T01:35:10;2.55;;;2.33;;
13485;SDS011;6815;59.336;17.998;2023-07-13T01:37:37;2.83;;;2.55;;
13485;SDS011;6815;59.336;17.998;2023-07-13T01:40:03;2.92;;;2.65;;
13485;SDS011;6815;59.336;17.998;2023-07-13T01:42:30;3.00;;;2.50;;
13485;SDS011;6815;59.336;17.998;2023-07-13T01:44:55;3.25;;;2.72;;
13485;SDS011;6815;59.336;17.998;2023-07-13T01:47:22;2.80;;;2.42;;
13485;SDS011;6815;59.336;17.998;2023-07-13T01:49:48;3.30;;;2.78;;
13485;SDS011;6815;59.336;17.998;2023-07-13T01:52:15;2.80;;;2.60;;
13485;SDS011;6815;59.336;17.998;2023-07-13T01:54:41;2.95;;;2.50;;
13485;SDS011;6815;59.336;17.998;2023-07-13T01:57:06;3.10;;;2.45;;
13485;SDS011;6815;59.336;17.998;2023-07-13T01:59:32;3.40;;;2.50;;
13485;SDS011;6815;59.336;17.998;2023-07-13T02:01:58;2.92;;;2.72;;
13485;SDS011;6815;59.336;17.998;2023-07-13T02:04:23;4.40;;;2.72;;
13485;SDS011;6815;59.336;17.998;2023-07-13T02:06:49;2.50;;;2.30;;
13485;SDS011;6815;59.336;17.998;2023-07-13T02:09:14;2.63;;;2.40;;
13485;SDS011;6815;59.336;17.998;2023-07-13T02:11:40;5.25;;;2.90;;
13485;SDS011;6815;59.336;17.998;2023-07-13T02:14:05;3.83;;;2.70;;
13485;SDS011;6815;59.336;17.998;2023-07-13T02:16:31;4.07;;;2.70;;
13485;SDS011;6815;59.336;17.998;2023-07-13T02:18:56;3.55;;;2.63;;
13485;SDS011;6815;59.336;17.998;2023-07-13T02:21:22;5.53;;;3.00;;
13485;SDS011;6815;59.336;17.998;2023-07-13T02:23:48;3.45;;;2.92;;
13485;SDS011;6815;59.336;17.998;2023-07-13T02:26:14;4.57;;;3.05;;
13485;SDS011;6815;59.336;17.998;2023-07-13T02:28:40;2.95;;;2.58;;
13485;SDS011;6815;59.336;17.998;2023-07-13T02:31:06;3.85;;;2.92;;
13485;SDS011;6815;59.336;17.998;2023-07-13T02:33:35;3.00;;;2.70;;
13485;SDS011;6815;59.336;17.998;2023-07-13T02:36:01;4.75;;;2.70;;
13485;SDS011;6815;59.336;17.998;2023-07-13T02:38:27;4.03;;;2.92;;
13485;SDS011;6815;59.336;17.998;2023-07-13T02:40:52;4.38;;;3.20;;
13485;SDS011;6815;59.336;17.998;2023-07-13T02:43:18;4.43;;;2.67;;
13485;SDS011;6815;59.336;17.998;2023-07-13T02:45:44;3.45;;;2.80;;
13485;SDS011;6815;59.336;17.998;2023-07-13T02:48:10;3.78;;;3.08;;
13485;SDS011;6815;59.336;17.998;2023-07-13T02:50:36;4.18;;;3.28;;
13485;SDS011;6815;59.336;17.998;2023-07-13T02:53:01;5.00;;;3.00;;
13485;SDS011;6815;59.336;17.998;2023-07-13T02:55:27;4.40;;;3.20;;
13485;SDS011;6815;59.336;17.998;2023-07-13T02:57:52;4.85;;;3.15;;
13485;SDS011;6815;59.336;17.998;2023-07-13T03:00:19;6.97;;;3.30;;
13485;SDS011;6815;59.336;17.998;2023-07-13T03:02:44;5.18;;;3.13;;
13485;SDS011;6815;59.336;17.998;2023-07-13T03:05:10;5.13;;;2.90;;
13485;SDS011;6815;59.336;17.998;2023-07-13T03:07:37;6.50;;;3.13;;
13485;SDS011;6815;59.336;17.998;2023-07-13T03:10:03;4.60;;;2.88;;
13485;SDS011;6815;59.336;17.998;2023-07-13T03:12:29;4.00;;;2.85;;
13485;SDS011;6815;59.336;17.998;2023-07-13T03:14:54;3.40;;;2.70;;
13485;SDS011;6815;59.336;17.998;2023-07-13T03:17:20;4.35;;;3.08;;
13485;SDS011;6815;59.336;17.998;2023-07-13T03:19:45;7.63;;;3.10;;
13485;SDS011;6815;59.336;17.998;2023-07-13T03:22:14;3.20;;;2.70;;
13485;SDS011;6815;59.336;17.998;2023-07-13T03:24:41;4.57;;;2.88;;
13485;SDS011;6815;59.336;17.998;2023-07-13T03:27:06;4.25;;;2.85;;
13485;SDS011;6815;59.336;17.998;2023-07-13T03:29:32;7.53;;;3.28;;
13485;SDS011;6815;59.336;17.998;2023-07-13T03:31:57;5.50;;;2.90;;
13485;SDS011;6815;59.336;17.998;2023-07-13T03:34:23;3.28;;;2.80;;
13485;SDS011;6815;59.336;17.998;2023-07-13T03:36:49;4.03;;;3.10;;
13485;SDS011;6815;59.336;17.998;2023-07-13T03:39:14;6.05;;;2.65;;
13485;SDS011;6815;59.336;17.998;2023-07-13T03:41:39;4.28;;;2.80;;
13485;SDS011;6815;59.336;17.998;2023-07-13T03:44:05;4.97;;;2.92;;
13485;SDS011;6815;59.336;17.998;2023-07-13T03:46:30;5.95;;;3.28;;
13485;SDS011;6815;59.336;17.998;2023-07-13T03:48:56;3.67;;;3.22;;
13485;SDS011;6815;59.336;17.998;2023-07-13T03:51:22;4.28;;;2.60;;
13485;SDS011;6815;59.336;17.998;2023-07-13T03:53:48;6.07;;;3.20;;
13485;SDS011;6815;59.336;17.998;2023-07-13T03:56:14;4.32;;;2.67;;
13485;SDS011;6815;59.336;17.998;2023-07-13T03:58:41;2.70;;;2.38;;
13485;SDS011;6815;59.336;17.998;2023-07-13T04:01:08;3.63;;;2.85;;
13485;SDS011;6815;59.336;17.998;2023-07-13T04:03:35;6.68;;;2.80;;
13485;SDS011;6815;59.336;17.998;2023-07-13T04:06:02;3.13;;;2.70;;
13485;SDS011;6815;59.336;17.998;2023-07-13T04:08:30;7.82;;;3.10;;
13485;SDS011;6815;59.336;17.998;2023-07-13T04:10:59;6.53;;;2.90;;
13485;SDS011;6815;59.336;17.998;2023-07-13T04:13:25;3.70;;;2.75;;
13485;SDS011;6815;59.336;17.998;2023-07-13T04:15:51;5.28;;;2.85;;
13485;SDS011;6815;59.336;17.998;2023-07-13T04:18:18;4.65;;;2.75;;
13485;SDS011;6815;59.336;17.998;2023-07-13T04:20:45;5.35;;;2.70;;
13485;SDS011;6815;59.336;17.998;2023-07-13T04:23:14;4.95;;;3.30;;
13485;SDS011;6815;59.336;17.998;2023-07-13T04:25:44;5.30;;;2.88;;
13485;SDS011;6815;59.336;17.998;2023-07-13T04:28:10;5.63;;;2.70;;
13485;SDS011;6815;59.336;17.998;2023-07-13T04:30:36;3.22;;;2.72;;
13485;SDS011;6815;59.336;17.998;2023-07-13T04:33:01;5.18;;;3.00;;
13485;SDS011;6815;59.336;17.998;2023-07-13T04:35:27;4.75;;;2.60;;
13485;SDS011;6815;59.336;17.998;2023-07-13T04:37:52;3.90;;;2.92;;
13485;SDS011;6815;59.336;17.998;2023-07-13T04:40:18;4.90;;;2.90;;
13485;SDS011;6815;59.336;17.998;2023-07-13T04:42:45;4.72;;;2.88;;
13485;SDS011;6815;59.336;17.998;2023-07-13T04:45:11;6.05;;;2.95;;
13485;SDS011;6815;59.336;17.998;2023-07-13T04:47:37;5.63;;;3.13;;
13485;SDS011;6815;59.336;17.998;2023-07-13T04:50:03;5.15;;;2.88;;
13485;SDS011;6815;59.336;17.998;2023-07-13T04:52:29;4.75;;;2.72;;
13485;SDS011;6815;59.336;17.998;2023-07-13T04:54:55;3.33;;;2.40;;
13485;SDS011;6815;59.336;17.998;2023-07-13T04:57:20;3.47;;;2.58;;
13485;SDS011;6815;59.336;17.998;2023-07-13T04:59:45;5.60;;;2.53;;
13485;SDS011;6815;59.336;17.998;2023-07-13T05:02:11;3.00;;;2.28;;
13485;SDS011;6815;59.336;17.998;2023-07-13T05:04:36;4.20;;;2.80;;
13485;SDS011;6815;59.336;17.998;2023-07-13T05:07:02;3.35;;;2.40;;
13485;SDS011;6815;59.336;17.998;2023-07-13T05:09:27;3.90;;;2.55;;
13485;SDS011;6815;59.336;17.998;2023-07-13T05:11:53;5.55;;;2.78;;
13485;SDS011;6815;59.336;17.998;2023-07-13T05:14:18;4.95;;;2.35;;
13485;SDS011;6815;59.336;17.998;2023-07-13T05:16:43;3.67;;;2.40;;
13485;SDS011;6815;59.336;17.998;2023-07-13T05:19:09;4.43;;;2.65;;
13485;SDS011;6815;59.336;17.998;2023-07-13T05:21:35;4.28;;;2.45;;
13485;SDS011;6815;59.336;17.998;2023-07-13T05:24:00;3.17;;;2.33;;
13485;SDS011;6815;59.336;17.998;2023-07-13T05:26:26;4.38;;;2.80;;
13485;SDS011;6815;59.336;17.998;2023-07-13T05:28:52;5.07;;;2.42;;
13485;SDS011;6815;59.336;17.998;2023-07-13T05:31:17;4.57;;;2.35;;
13485;SDS011;6815;59.336;17.998;2023-07-13T05:33:43;3.95;;;2.50;;
13485;SDS011;6815;59.336;17.998;2023-07-13T05:36:08;7.05;;;2.40;;
13485;SDS011;6815;59.336;17.998;2023-07-13T05:38:34;3.92;;;2.50;;
13485;SDS011;6815;59.336;17.998;2023-07-13T05:40:59;3.58;;;2.25;;
13485;SDS011;6815;59.336;17.998;2023-07-13T05:43:25;4.22;;;2.30;;
13485;SDS011;6815;59.336;17.998;2023-07-13T05:45:52;4.85;;;2.20;;
13485;SDS011;6815;59.336;17.998;2023-07-13T05:48:19;4.07;;;2.33;;
13485;SDS011;6815;59.336;17.998;2023-07-13T05:50:44;5.13;;;2.35;;
13485;SDS011;6815;59.336;17.998;2023-07-13T05:53:11;4.72;;;2.33;;
13485;SDS011;6815;59.336;17.998;2023-07-13T05:55:40;5.10;;;2.67;;
13485;SDS011;6815;59.336;17.998;2023-07-13T05:58:09;3.65;;;2.15;;
13485;SDS011;6815;59.336;17.998;2023-07-13T06:00:34;6.45;;;2.60;;
13485;SDS011;6815;59.336;17.998;2023-07-13T06:03:00;2.80;;;2.40;;
13485;SDS011;6815;59.336;17.998;2023-07-13T06:05:25;2.35;;;1.98;;
13485;SDS011;6815;59.336;17.998;2023-07-13T06:07:54;5.70;;;2.20;;
13485;SDS011;6815;59.336;17.998;2023-07-13T06:10:19;3.22;;;1.98;;
13485;SDS011;6815;59.336;17.998;2023-07-13T06:12:45;6.68;;;2.00;;
13485;SDS011;6815;59.336;17.998;2023-07-13T06:15:11;4.72;;;1.92;;
13485;SDS011;6815;59.336;17.998;2023-07-13T06:17:36;3.85;;;1.75;;
13485;SDS011;6815;59.336;17.998;2023-07-13T06:20:02;2.30;;;1.52;;
13485;SDS011;6815;59.336;17.998;2023-07-13T06:22:27;4.20;;;1.80;;
13485;SDS011;6815;59.336;17.998;2023-07-13T06:24:53;3.67;;;1.60;;
13485;SDS011;6815;59.336;17.998;2023-07-13T06:27:18;2.70;;;2.00;;
13485;SDS011;6815;59.336;17.998;2023-07-13T06:29:44;3.92;;;1.50;;
13485;SDS011;6815;59.336;17.998;2023-07-13T06:32:10;3.33;;;1.90;;
13485;SDS011;6815;59.336;17.998;2023-07-13T06:34:35;2.15;;;1.60;;
13485;SDS011;6815;59.336;17.998;2023-07-13T06:37:01;4.90;;;1.70;;
13485;SDS011;6815;59.336;17.998;2023-07-13T06:39:27;3.30;;;1.45;;
13485;SDS011;6815;59.336;17.998;2023-07-13T06:41:52;4.10;;;1.75;;
13485;SDS011;6815;59.336;17.998;2023-07-13T06:44:17;5.57;;;2.03;;
13485;SDS011;6815;59.336;17.998;2023-07-13T06:46:43;3.67;;;1.67;;
13485;SDS011;6815;59.336;17.998;2023-07-13T06:49:09;2.17;;;1.80;;
13485;SDS011;6815;59.336;17.998;2023-07-13T06:51:34;4.20;;;2.08;;
13485;SDS011;6815;59.336;17.998;2023-07-13T06:54:00;4.55;;;2.10;;
13485;SDS011;6815;59.336;17.998;2023-07-13T06:56:25;4.45;;;1.90;;
13485;SDS011;6815;59.336;17.998;2023-07-13T06:58:51;3.63;;;1.95;;
13485;SDS011;6815;59.336;17.998;2023-07-13T07:01:16;2.85;;;1.42;;
13485;SDS011;6815;59.336;17.998;2023-07-13T07:03:41;5.00;;;2.10;;
13485;SDS011;6815;59.336;17.998;2023-07-13T07:06:12;3.95;;;1.50;;
13485;SDS011;6815;59.336;17.998;2023-07-13T07:08:48;2.03;;;1.50;;
13485;SDS011;6815;59.336;17.998;2023-07-13T07:11:16;3.50;;;1.40;;
13485;SDS011;6815;59.336;17.998;2023-07-13T07:13:43;2.83;;;1.48;;
13485;SDS011;6815;59.336;17.998;2023-07-13T07:16:09;3.65;;;1.52;;
13485;SDS011;6815;59.336;17.998;2023-07-13T07:18:34;3.83;;;1.52;;
13485;SDS011;6815;59.336;17.998;2023-07-13T07:21:00;4.10;;;1.70;;
13485;SDS011;6815;59.336;17.998;2023-07-13T07:23:26;2.97;;;1.98;;
13485;SDS011;6815;59.336;17.998;2023-07-13T07:25:51;4.57;;;2.00;;
13485;SDS011;6815;59.336;17.998;2023-07-13T07:28:17;3.25;;;1.70;;
13485;SDS011;6815;59.336;17.998;2023-07-13T07:30:43;3.67;;;1.67;;
13485;SDS011;6815;59.336;17.998;2023-07-13T07:33:10;4.32;;;1.70;;
13485;SDS011;6815;59.336;17.998;2023-07-13T07:35:35;3.53;;;1.73;;
13485;SDS011;6815;59.336;17.998;2023-07-13T07:38:00;2.67;;;1.45;;
13485;SDS011;6815;59.336;17.998;2023-07-13T07:40:26;3.75;;;1.40;;
13485;SDS011;6815;59.336;17.998;2023-07-13T07:42:51;4.40;;;1.80;;
13485;SDS011;6815;59.336;17.998;2023-07-13T07:45:18;3.67;;;1.80;;
13485;SDS011;6815;59.336;17.998;2023-07-13T07:47:44;2.53;;;2.28;;
13485;SDS011;6815;59.336;17.998;2023-07-13T07:50:10;4.93;;;2.20;;
13485;SDS011;6815;59.336;17.998;2023-07-13T07:52:36;3.75;;;1.75;;
13485;SDS011;6815;59.336;17.998;2023-07-13T07:55:04;2.63;;;1.70;;
13485;SDS011;6815;59.336;17.998;2023-07-13T07:57:30;5.15;;;2.00;;
13485;SDS011;6815;59.336;17.998;2023-07-13T07:59:56;5.25;;;1.75;;
13485;SDS011;6815;59.336;17.998;2023-07-13T08:02:21;4.30;;;1.70;;
13485;SDS011;6815;59.336;17.998;2023-07-13T08:04:46;4.03;;;1.48;;
13485;SDS011;6815;59.336;17.998;2023-07-13T08:07:12;3.80;;;1.80;;
13485;SDS011;6815;59.336;17.998;2023-07-13T08:09:38;4.53;;;1.80;;
13485;SDS011;6815;59.336;17.998;2023-07-13T08:12:03;3.97;;;1.90;;
13485;SDS011;6815;59.336;17.998;2023-07-13T08:14:29;4.65;;;1.80;;
13485;SDS011;6815;59.336;17.998;2023-07-13T08:16:55;6.00;;;1.90;;
13485;SDS011;6815;59.336;17.998;2023-07-13T08:19:20;3.78;;;1.40;;
13485;SDS011;6815;59.336;17.998;2023-07-13T08:21:45;2.08;;;1.30;;
13485;SDS011;6815;59.336;17.998;2023-07-13T08:24:13;3.20;;;1.77;;
13485;SDS011;6815;59.336;17.998;2023-07-13T08:26:39;3.85;;;1.60;;
13485;SDS011;6815;59.336;17.998;2023-07-13T08:29:04;2.20;;;1.50;;
13485;SDS011;6815;59.336;17.998;2023-07-13T08:31:30;3.60;;;1.45;;
13485;SDS011;6815;59.336;17.998;2023-07-13T08:33:55;2.78;;;1.17;;
13485;SDS011;6815;59.336;17.998;2023-07-13T08:36:21;4.35;;;1.50;;
13485;SDS011;6815;59.336;17.998;2023-07-13T08:38:46;5.30;;;1.67;;
13485;SDS011;6815;59.336;17.998;2023-07-13T08:41:16;2.55;;;1.52;;
13485;SDS011;6815;59.336;17.998;2023-07-13T08:43:45;5.47;;;1.60;;
13485;SDS011;6815;59.336;17.998;2023-07-13T08:46:24;3.95;;;1.77;;
13485;SDS011;6815;59.336;17.998;2023-07-13T08:48:53;3.70;;;1.50;;
13485;SDS011;6815;59.336;17.998;2023-07-13T08:54:22;3.05;;;1.88;;
13485;SDS011;6815;59.336;17.998;2023-07-13T08:56:53;3.45;;;1.30;;
13485;SDS011;6815;59.336;17.998;2023-07-13T08:59:22;3.30;;;1.73;;
13485;SDS011;6815;59.336;17.998;2023-07-13T09:02:00;2.33;;;1.60;;
13485;SDS011;6815;59.336;17.998;2023-07-13T09:13:17;3.92;;;1.60;;
13485;SDS011;6815;59.336;17.998;2023-07-13T09:16:05;3.22;;;1.67;;
13485;SDS011;6815;59.336;17.998;2023-07-13T09:21:18;3.65;;;1.55;;
13485;SDS011;6815;59.336;17.998;2023-07-13T09:23:45;2.35;;;1.40;;
13485;SDS011;6815;59.336;17.998;2023-07-13T09:26:14;4.97;;;1.20;;
13485;SDS011;6815;59.336;17.998;2023-07-13T09:29:10;2.25;;;1.48;;
13485;SDS011;6815;59.336;17.998;2023-07-13T09:31:42;3.00;;;1.40;;
13485;SDS011;6815;59.336;17.998;2023-07-13T09:34:10;2.67;;;1.55;;
13485;SDS011;6815;59.336;17.998;2023-07-13T09:36:37;6.63;;;1.77;;
13485;SDS011;6815;59.336;17.998;2023-07-13T09:39:04;3.03;;;1.30;;
13485;SDS011;6815;59.336;17.998;2023-07-13T09:41:41;3.55;;;1.50;;
13485;SDS011;6815;59.336;17.998;2023-07-13T09:44:09;3.63;;;1.55;;
13485;SDS011;6815;59.336;17.998;2023-07-13T09:46:37;1.92;;;1.15;;
13485;SDS011;6815;59.336;17.998;2023-07-13T09:49:17;2.80;;;1.40;;
13485;SDS011;6815;59.336;17.998;2023-07-13T09:51:43;2.95;;;1.40;;
13485;SDS011;6815;59.336;17.998;2023-07-13T09:54:19;6.22;;;1.65;;
13485;SDS011;6815;59.336;17.998;2023-07-13T09:56:53;5.43;;;1.77;;
13485;SDS011;6815;59.336;17.998;2023-07-13T09:59:24;3.63;;;1.73;;
13485;SDS011;6815;59.336;17.998;2023-07-13T10:01:53;4.53;;;1.60;;
13485;SDS011;6815;59.336;17.998;2023-07-13T10:04:20;2.60;;;1.30;;
13485;SDS011;6815;59.336;17.998;2023-07-13T10:06:52;2.92;;;1.30;;
13485;SDS011;6815;59.336;17.998;2023-07-13T10:09:31;3.10;;;1.70;;
13485;SDS011;6815;59.336;17.998;2023-07-13T10:11:57;2.97;;;1.65;;
13485;SDS011;6815;59.336;17.998;2023-07-13T10:14:22;2.10;;;1.45;;
13485;SDS011;6815;59.336;17.998;2023-07-13T10:16:51;2.17;;;1.35;;
13485;SDS011;6815;59.336;17.998;2023-07-13T10:19:24;3.55;;;1.40;;
13485;SDS011;6815;59.336;17.998;2023-07-13T10:21:57;3.75;;;1.38;;
13485;SDS011;6815;59.336;17.998;2023-07-13T10:24:26;2.55;;;1.27;;
13485;SDS011;6815;59.336;17.998;2023-07-13T10:27:01;3.92;;;1.35;;
13485;SDS011;6815;59.336;17.998;2023-07-13T10:29:55;2.75;;;1.30;;
13485;SDS011;6815;59.336;17.998;2023-07-13T10:32:27;2.85;;;1.83;;
13485;SDS011;6815;59.336;17.998;2023-07-13T10:34:52;2.85;;;1.65;;
13485;SDS011;6815;59.336;17.998;2023-07-13T10:37:22;1.73;;;1.15;;
13485;SDS011;6815;59.336;17.998;2023-07-13T10:39:52;2.67;;;1.23;;
13485;SDS011;6815;59.336;17.998;2023-07-13T10:44:57;2.03;;;1.15;;
13485;SDS011;6815;59.336;17.998;2023-07-13T10:47:23;3.35;;;1.45;;
13485;SDS011;6815;59.336;17.998;2023-07-13T10:49:50;4.72;;;1.35;;
13485;SDS011;6815;59.336;17.998;2023-07-13T11:00:56;3.65;;;1.42;;
13485;SDS011;6815;59.336;17.998;2023-07-13T11:03:28;1.60;;;1.17;;
13485;SDS011;6815;59.336;17.998;2023-07-13T11:10:56;3.58;;;1.50;;
13485;SDS011;6815;59.336;17.998;2023-07-13T11:13:38;3.00;;;1.10;;
13485;SDS011;6815;59.336;17.998;2023-07-13T11:18:51;4.22;;;1.48;;
13485;SDS011;6815;59.336;17.998;2023-07-13T11:21:34;2.45;;;1.25;;
13485;SDS011;6815;59.336;17.998;2023-07-13T11:24:04;2.03;;;1.30;;
13485;SDS011;6815;59.336;17.998;2023-07-13T11:26:50;2.67;;;1.10;;
13485;SDS011;6815;59.336;17.998;2023-07-13T11:31:42;1.75;;;1.30;;
13485;SDS011;6815;59.336;17.998;2023-07-13T11:34:16;2.97;;;1.50;;
13485;SDS011;6815;59.336;17.998;2023-07-13T11:36:46;2.60;;;1.35;;
13485;SDS011;6815;59.336;17.998;2023-07-13T11:41:51;3.50;;;1.33;;
13485;SDS011;6815;59.336;17.998;2023-07-13T11:44:20;3.53;;;1.40;;
13485;SDS011;6815;59.336;17.998;2023-07-13T11:46:50;4.70;;;1.40;;
13485;SDS011;6815;59.336;17.998;2023-07-13T11:49:19;2.55;;;1.20;;
13485;SDS011;6815;59.336;17.998;2023-07-13T11:51:45;2.33;;;1.30;;
13485;SDS011;6815;59.336;17.998;2023-07-13T11:56:59;3.95;;;1.40;;
13485;SDS011;6815;59.336;17.998;2023-07-13T11:59:31;2.25;;;1.40;;
13485;SDS011;6815;59.336;17.998;2023-07-13T12:01:58;3.28;;;1.38;;
13485;SDS011;6815;59.336;17.998;2023-07-13T12:04:28;4.13;;;1.35;;
13485;SDS011;6815;59.336;17.998;2023-07-13T12:07:15;2.25;;;1.38;;
13485;SDS011;6815;59.336;17.998;2023-07-13T12:09:42;3.90;;;1.42;;
13485;SDS011;6815;59.336;17.998;2023-07-13T12:12:11;1.90;;;1.30;;
13485;SDS011;6815;59.336;17.998;2023-07-13T12:14:39;3.35;;;1.20;;
13485;SDS011;6815;59.336;17.998;2023-07-13T12:17:12;3.53;;;1.20;;
13485;SDS011;6815;59.336;17.998;2023-07-13T12:19:43;3.20;;;1.40;;
13485;SDS011;6815;59.336;17.998;2023-07-13T12:22:09;3.67;;;1.67;;
13485;SDS011;6815;59.336;17.998;2023-07-13T12:24:37;2.00;;;1.60;;
13485;SDS011;6815;59.336;17.998;2023-07-13T12:27:05;2.35;;;1.58;;
13485;SDS011;6815;59.336;17.998;2023-07-13T12:29:32;2.72;;;1.40;;
13485;SDS011;6815;59.336;17.998;2023-07-13T12:31:58;6.07;;;1.30;;
13485;SDS011;6815;59.336;17.998;2023-07-13T12:34:25;3.25;;;1.20;;
13485;SDS011;6815;59.336;17.998;2023-07-13T12:36:53;2.67;;;1.27;;
13485;SDS011;6815;59.336;17.998;2023-07-13T12:41:52;2.67;;;1.30;;
13485;SDS011;6815;59.336;17.998;2023-07-13T12:44:31;3.90;;;1.63;;
13485;SDS011;6815;59.336;17.998;2023-07-13T12:47:09;6.45;;;1.60;;
13485;SDS011;6815;59.336;17.998;2023-07-13T12:49:48;3.78;;;1.50;;
13485;SDS011;6815;59.336;17.998;2023-07-13T12:52:22;2.92;;;1.60;;
13485;SDS011;6815;59.336;17.998;2023-07-13T12:54:54;5.18;;;1.77;;
13485;SDS011;6815;59.336;17.998;2023-07-13T12:57:22;2.13;;;1.20;;
13485;SDS011;6815;59.336;17.998;2023-07-13T12:59:51;6.57;;;1.70;;
13485;SDS011;6815;59.336;17.998;2023-07-13T13:02:31;4.18;;;1.63;;
13485;SDS011;6815;59.336;17.998;2023-07-13T13:04:59;2.75;;;1.42;;
13485;SDS011;6815;59.336;17.998;2023-07-13T13:07:26;3.65;;;1.25;;
13485;SDS011;6815;59.336;17.998;2023-07-13T13:09:52;1.58;;;1.30;;
13485;SDS011;6815;59.336;17.998;2023-07-13T13:12:21;2.83;;;1.33;;
13485;SDS011;6815;59.336;17.998;2023-07-13T13:14:47;3.72;;;1.67;;
13485;SDS011;6815;59.336;17.998;2023-07-13T13:17:19;2.03;;;1.20;;
13485;SDS011;6815;59.336;17.998;2023-07-13T13:19:46;3.92;;;1.38;;
13485;SDS011;6815;59.336;17.998;2023-07-13T13:22:12;3.45;;;1.38;;
13485;SDS011;6815;59.336;17.998;2023-07-13T13:24:39;3.45;;;1.48;;
13485;SDS011;6815;59.336;17.998;2023-07-13T13:27:04;1.60;;;1.20;;
13485;SDS011;6815;59.336;17.998;2023-07-13T13:29:31;2.95;;;1.50;;
13485;SDS011;6815;59.336;17.998;2023-07-13T13:31:58;8.55;;;1.83;;
13485;SDS011;6815;59.336;17.998;2023-07-13T13:34:24;2.28;;;1.50;;
13485;SDS011;6815;59.336;17.998;2023-07-13T13:36:51;1.67;;;1.50;;
13485;SDS011;6815;59.336;17.998;2023-07-13T13:39:19;3.00;;;1.30;;
13485;SDS011;6815;59.336;17.998;2023-07-13T13:41:48;2.17;;;1.33;;
13485;SDS011;6815;59.336;17.998;2023-07-13T13:44:15;3.38;;;1.48;;
13485;SDS011;6815;59.336;17.998;2023-07-13T13:46:41;2.22;;;1.48;;
13485;SDS011;6815;59.336;17.998;2023-07-13T13:49:14;2.20;;;1.40;;
13485;SDS011;6815;59.336;17.998;2023-07-13T13:51:42;4.32;;;1.60;;
13485;SDS011;6815;59.336;17.998;2023-07-13T13:54:14;3.72;;;1.50;;
13485;SDS011;6815;59.336;17.998;2023-07-13T13:56:42;1.85;;;1.45;;
13485;SDS011;6815;59.336;17.998;2023-07-13T13:59:08;3.15;;;1.52;;
13485;SDS011;6815;59.336;17.998;2023-07-13T14:01:34;3.47;;;1.40;;
13485;SDS011;6815;59.336;17.998;2023-07-13T14:04:00;4.05;;;1.40;;
13485;SDS011;6815;59.336;17.998;2023-07-13T14:06:25;4.10;;;1.48;;
13485;SDS011;6815;59.336;17.998;2023-07-13T14:08:52;2.67;;;1.20;;
13485;SDS011;6815;59.336;17.998;2023-07-13T14:11:20;3.38;;;1.30;;
13485;SDS011;6815;59.336;17.998;2023-07-13T14:13:54;2.83;;;1.25;;
13485;SDS011;6815;59.336;17.998;2023-07-13T14:16:22;3.33;;;1.35;;
13485;SDS011;6815;59.336;17.998;2023-07-13T14:18:52;6.07;;;1.27;;
13485;SDS011;6815;59.336;17.998;2023-07-13T14:21:19;2.65;;;1.25;;
13485;SDS011;6815;59.336;17.998;2023-07-13T14:23:47;1.90;;;1.20;;
13485;SDS011;6815;59.336;17.998;2023-07-13T14:26:14;3.25;;;1.15;;
13485;SDS011;6815;59.336;17.998;2023-07-13T14:28:43;3.97;;;1.10;;
13485;SDS011;6815;59.336;17.998;2023-07-13T14:31:11;3.70;;;1.20;;
13485;SDS011;6815;59.336;17.998;2023-07-13T14:33:38;4.30;;;1.48;;
13485;SDS011;6815;59.336;17.998;2023-07-13T14:38:57;2.42;;;1.20;;
13485;SDS011;6815;59.336;17.998;2023-07-13T14:41:24;2.15;;;1.17;;
13485;SDS011;6815;59.336;17.998;2023-07-13T14:43:51;2.58;;;1.25;;
13485;SDS011;6815;59.336;17.998;2023-07-13T14:46:37;3.05;;;1.40;;
13485;SDS011;6815;59.336;17.998;2023-07-13T14:51:34;3.95;;;1.50;;
13485;SDS011;6815;59.336;17.998;2023-07-13T14:54:03;3.67;;;1.60;;
13485;SDS011;6815;59.336;17.998;2023-07-13T14:56:30;5.22;;;1.58;;
13485;SDS011;6815;59.336;17.998;2023-07-13T14:58:55;2.20;;;1.30;;
13485;SDS011;6815;59.336;17.998;2023-07-13T15:01:21;3.28;;;1.60;;
13485;SDS011;6815;59.336;17.998;2023-07-13T15:03:48;3.10;;;1.50;;
13485;SDS011;6815;59.336;17.998;2023-07-13T15:06:15;1.45;;;1.35;;
13485;SDS011;6815;59.336;17.998;2023-07-13T15:08:41;2.03;;;1.30;;
13485;SDS011;6815;59.336;17.998;2023-07-13T15:11:07;5.93;;;1.88;;
13485;SDS011;6815;59.336;17.998;2023-07-13T15:13:33;2.67;;;1.60;;
13485;SDS011;6815;59.336;17.998;2023-07-13T15:15:59;3.17;;;1.65;;
13485;SDS011;6815;59.336;17.998;2023-07-13T15:18:25;6.38;;;1.80;;
13485;SDS011;6815;59.336;17.998;2023-07-13T15:20:52;3.33;;;1.58;;
13485;SDS011;6815;59.336;17.998;2023-07-13T15:23:21;2.40;;;1.60;;
13485;SDS011;6815;59.336;17.998;2023-07-13T15:25:47;2.30;;;1.77;;
13485;SDS011;6815;59.336;17.998;2023-07-13T15:28:14;2.85;;;1.80;;
13485;SDS011;6815;59.336;17.998;2023-07-13T15:30:45;3.70;;;1.70;;
13485;SDS011;6815;59.336;17.998;2023-07-13T15:35:41;4.07;;;1.92;;
13485;SDS011;6815;59.336;17.998;2023-07-13T15:38:14;4.03;;;2.00;;
13485;SDS011;6815;59.336;17.998;2023-07-13T15:40:42;4.10;;;1.70;;
13485;SDS011;6815;59.336;17.998;2023-07-13T15:43:11;4.70;;;2.10;;
13485;SDS011;6815;59.336;17.998;2023-07-13T15:45:40;3.22;;;1.95;;